createdAt,value
2023-04-17T00:00:48.124Z,99.90
2023-04-17T00:03:17.116Z,99.90
2023-04-17T00:05:47.004Z,99.90
2023-04-17T00:08:15.290Z,99.90
2023-04-17T00:10:45.553Z,99.90
2023-04-17T00:13:17.729Z,99.90
2023-04-17T00:15:45.982Z,99.90
2023-04-17T00:18:15.221Z,99.90
2023-04-17T00:20:43.604Z,99.90
2023-04-17T00:23:13.272Z,99.90
2023-04-17T00:25:44.610Z,99.90
2023-04-17T00:28:12.648Z,99.90
2023-04-17T00:30:41.207Z,99.90
2023-04-17T00:33:10.315Z,99.90
2023-04-17T00:35:38.742Z,99.90
2023-04-17T00:38:07.958Z,99.90
2023-04-17T00:40:40.124Z,99.90
2023-04-17T00:43:08.452Z,99.90
2023-04-17T00:45:38.230Z,99.90
2023-04-17T00:48:09.071Z,99.90
2023-04-17T00:50:38.041Z,99.90
2023-04-17T00:53:07.728Z,99.90
2023-04-17T00:55:40.996Z,99.90
2023-04-17T00:58:09.697Z,99.90
2023-04-17T01:00:38.201Z,99.90
2023-04-17T01:03:07.429Z,99.90
2023-04-17T01:05:40.436Z,99.90
2023-04-17T01:08:08.692Z,99.90
2023-04-17T01:10:38.351Z,99.90
2023-04-17T01:13:07.936Z,99.90
2023-04-17T01:15:38.104Z,99.90
2023-04-17T01:18:07.245Z,99.90
2023-04-17T01:20:38.482Z,99.90
2023-04-17T01:23:07.458Z,99.90
2023-04-17T01:25:37.292Z,99.90
2023-04-17T01:28:08.327Z,99.90
2023-04-17T01:30:38.446Z,99.90
2023-04-17T01:33:07.745Z,99.90
2023-04-17T01:35:38.022Z,99.90
2023-04-17T01:38:08.110Z,99.90
2023-04-17T01:40:39.261Z,99.90
2023-04-17T01:43:09.733Z,99.90
2023-04-17T01:45:39.115Z,99.90
2023-04-17T01:48:07.726Z,99.90
2023-04-17T01:50:37.468Z,99.90
2023-04-17T01:53:05.840Z,99.90
2023-04-17T01:55:36.390Z,99.90
2023-04-17T01:58:10.929Z,99.90
2023-04-17T02:00:41.118Z,99.90
2023-04-17T02:03:10.745Z,99.90
2023-04-17T02:05:38.934Z,99.90
2023-04-17T02:08:07.200Z,99.90
2023-04-17T02:10:35.518Z,99.90
2023-04-17T02:13:05.203Z,99.90
2023-04-17T02:15:33.102Z,99.90
2023-04-17T02:18:01.777Z,99.90
2023-04-17T02:20:29.959Z,99.90
2023-04-17T02:22:57.742Z,99.90
2023-04-17T02:25:25.557Z,99.90
2023-04-17T02:27:54.259Z,99.90
2023-04-17T02:30:23.844Z,99.90
2023-04-17T02:32:52.964Z,99.90
2023-04-17T02:35:21.735Z,99.90
2023-04-17T02:37:49.604Z,99.90
2023-04-17T02:40:17.727Z,99.90
2023-04-17T02:42:45.621Z,99.90
2023-04-17T02:45:13.560Z,99.90
2023-04-17T02:47:42.862Z,99.90
2023-04-17T02:50:11.945Z,99.90
2023-04-17T02:52:41.008Z,99.90
2023-04-17T02:55:09.733Z,99.90
2023-04-17T02:57:37.562Z,99.90
2023-04-17T03:00:08.972Z,99.90
2023-04-17T03:02:38.133Z,99.90
2023-04-17T03:05:08.165Z,99.90
2023-04-17T03:07:36.119Z,99.90
2023-04-17T03:10:04.248Z,99.90
2023-04-17T03:12:32.039Z,99.90
2023-04-17T03:14:59.861Z,99.90
2023-04-17T03:17:27.879Z,99.90
2023-04-17T03:19:55.823Z,99.90
2023-04-17T03:22:25.010Z,99.90
2023-04-17T03:24:52.817Z,99.90
2023-04-17T03:27:24.294Z,99.90
2023-04-17T03:29:52.208Z,99.90
2023-04-17T03:32:20.111Z,99.90
2023-04-17T03:34:47.941Z,99.90
2023-04-17T03:37:15.767Z,99.90
2023-04-17T03:39:45.046Z,99.90
2023-04-17T03:42:14.759Z,99.90
2023-04-17T03:44:42.729Z,99.90
2023-04-17T03:47:11.385Z,99.90
2023-04-17T03:49:39.226Z,99.90
2023-04-17T03:52:07.149Z,99.90
2023-04-17T03:54:35.896Z,99.90
2023-04-17T03:57:05.374Z,99.90
2023-04-17T03:59:33.326Z,99.90
2023-04-17T04:02:01.326Z,99.90
2023-04-17T04:04:29.497Z,99.90
2023-04-17T04:06:58.037Z,99.90
2023-04-17T04:09:26.429Z,99.90
2023-04-17T04:11:54.837Z,99.90
2023-04-17T04:14:24.465Z,99.90
2023-04-17T04:16:52.792Z,99.90
2023-04-17T04:19:20.610Z,99.90
2023-04-17T04:21:48.415Z,99.90
2023-04-17T04:24:16.663Z,99.90
2023-04-17T04:26:47.438Z,99.90
2023-04-17T04:29:15.322Z,99.90
2023-04-17T04:31:46.559Z,99.90
2023-04-17T04:34:16.866Z,99.90
2023-04-17T04:36:50.019Z,99.90
2023-04-17T04:39:20.594Z,99.90
2023-04-17T04:41:50.774Z,99.90
2023-04-17T04:44:18.918Z,99.90
2023-04-17T04:46:48.060Z,99.90
2023-04-17T04:49:16.259Z,99.90
2023-04-17T04:51:44.245Z,99.90
2023-04-17T04:54:12.274Z,99.90
2023-04-17T04:56:40.620Z,99.90
2023-04-17T04:59:08.624Z,99.90
2023-04-17T05:01:36.662Z,99.90
2023-04-17T05:04:06.403Z,99.90
2023-04-17T05:06:34.571Z,99.90
2023-04-17T05:09:02.444Z,99.90
2023-04-17T05:11:30.852Z,99.90
2023-04-17T05:13:58.792Z,99.90
2023-04-17T05:16:26.848Z,99.90
2023-04-17T05:18:54.836Z,99.90
2023-04-17T05:21:24.033Z,99.90
2023-04-17T05:23:51.967Z,99.90
2023-04-17T05:26:21.923Z,99.90
2023-04-17T05:28:49.824Z,99.90
2023-04-17T05:31:18.101Z,99.90
2023-04-17T05:33:46.085Z,99.90
2023-04-17T05:36:14.025Z,99.90
2023-04-17T05:38:45.946Z,99.90
2023-04-17T05:41:14.213Z,99.90
2023-04-17T05:43:42.969Z,99.90
2023-04-17T05:46:10.979Z,99.90
2023-04-17T05:48:39.107Z,99.90
2023-04-17T05:51:07.252Z,99.90
2023-04-17T05:53:36.098Z,99.90
2023-04-17T05:56:05.843Z,99.90
2023-04-17T05:58:36.101Z,99.90
2023-04-17T06:01:06.118Z,99.90
2023-04-17T06:03:34.312Z,99.90
2023-04-17T06:06:02.489Z,99.90
2023-04-17T06:08:30.544Z,99.90
2023-04-17T06:10:58.541Z,99.90
2023-04-17T06:13:27.827Z,99.90
2023-04-17T06:15:55.701Z,99.90
2023-04-17T06:18:23.725Z,99.90
2023-04-17T06:20:51.782Z,99.90
2023-04-17T06:23:19.786Z,99.90
2023-04-17T06:25:47.756Z,99.90
2023-04-17T06:28:15.817Z,99.90
2023-04-17T06:30:45.255Z,99.90
2023-04-17T06:33:13.085Z,99.90
2023-04-17T06:35:41.072Z,99.90
2023-04-17T06:38:09.812Z,99.90
2023-04-17T06:40:38.503Z,99.90
2023-04-17T06:43:06.513Z,99.90
2023-04-17T06:45:34.455Z,99.90
2023-04-17T06:48:03.791Z,99.90
2023-04-17T06:50:31.818Z,99.90
2023-04-17T06:52:59.791Z,99.90
2023-04-17T06:55:27.855Z,99.90
2023-04-17T06:57:55.953Z,99.90
2023-04-17T07:00:24.584Z,99.90
2023-04-17T07:02:52.595Z,99.90
2023-04-17T07:05:22.043Z,99.90
2023-04-17T07:07:50.204Z,99.90
2023-04-17T07:10:19.519Z,99.90
2023-04-17T07:12:47.657Z,99.90
2023-04-17T07:15:16.521Z,99.90
2023-04-17T07:17:44.487Z,99.90
2023-04-17T07:20:13.121Z,99.90
2023-04-17T07:22:43.182Z,99.90
2023-04-17T07:25:11.528Z,99.90
2023-04-17T07:27:39.605Z,99.90
2023-04-17T07:30:09.791Z,99.90
2023-04-17T07:32:37.821Z,99.90
2023-04-17T07:35:06.480Z,99.90
2023-04-17T07:37:36.994Z,99.90
2023-04-17T07:40:10.309Z,99.90
2023-04-17T07:42:38.232Z,99.90
2023-04-17T07:45:06.942Z,99.90
2023-04-17T07:47:34.923Z,99.90
2023-04-17T07:50:03.118Z,99.90
2023-04-17T07:52:31.225Z,99.90
2023-04-17T07:54:59.246Z,99.90
2023-04-17T07:57:28.449Z,99.90
2023-04-17T07:59:56.566Z,99.90
2023-04-17T08:02:24.535Z,99.90
2023-04-17T08:04:53.818Z,99.90
2023-04-17T08:07:22.278Z,99.90
2023-04-17T08:09:51.075Z,99.90
2023-04-17T08:12:18.977Z,99.90
2023-04-17T08:17:20.188Z,99.90
2023-04-17T08:19:50.300Z,99.90
2023-04-17T08:22:19.664Z,99.90
2023-04-17T08:24:48.052Z,99.90
2023-04-17T08:27:16.117Z,99.90
2023-04-17T08:29:44.676Z,99.90
2023-04-17T08:32:14.530Z,99.90
2023-04-17T08:34:46.000Z,99.90
2023-04-17T08:37:14.126Z,99.90
2023-04-17T08:39:42.105Z,99.90
2023-04-17T08:42:17.485Z,99.90
2023-04-17T08:44:46.789Z,99.90
2023-04-17T08:47:14.977Z,99.90
2023-04-17T08:49:46.187Z,99.90
2023-04-17T08:52:14.601Z,99.90
2023-04-17T08:54:42.690Z,99.90
2023-04-17T08:57:10.620Z,99.90
2023-04-17T08:59:38.664Z,99.90
2023-04-17T09:02:08.225Z,99.90
2023-04-17T09:04:41.893Z,99.90
2023-04-17T09:07:13.154Z,99.90
2023-04-17T09:09:51.828Z,99.90
2023-04-17T09:12:20.539Z,99.90
2023-04-17T09:14:48.725Z,99.90
2023-04-17T09:17:18.573Z,99.90
2023-04-17T09:20:07.926Z,99.90
2023-04-17T09:22:39.414Z,99.90
2023-04-17T09:25:26.365Z,99.90
2023-04-17T09:27:54.324Z,99.90
2023-04-17T09:30:23.139Z,99.90
2023-04-17T09:33:04.699Z,99.90
2023-04-17T09:35:33.352Z,99.90
2023-04-17T09:38:02.708Z,99.90
2023-04-17T09:40:38.927Z,99.90
2023-04-17T09:43:09.784Z,99.90
2023-04-17T09:45:42.472Z,99.90
2023-04-17T09:48:12.499Z,99.90
2023-04-17T09:50:41.253Z,99.90
2023-04-17T09:53:11.690Z,99.90
2023-04-17T09:55:43.570Z,99.90
2023-04-17T09:58:12.343Z,99.90
2023-04-17T10:00:42.931Z,99.90
2023-04-17T10:03:11.590Z,99.90
2023-04-17T10:05:40.098Z,99.90
2023-04-17T10:08:11.356Z,99.90
2023-04-17T10:10:39.592Z,99.90
2023-04-17T10:13:12.600Z,99.90
2023-04-17T10:15:41.184Z,99.90
2023-04-17T10:18:23.250Z,99.90
2023-04-17T10:20:53.658Z,99.90
2023-04-17T10:23:33.902Z,99.90
2023-04-17T10:26:43.546Z,99.90
2023-04-17T10:29:12.813Z,99.90
2023-04-17T10:32:17.964Z,99.90
2023-04-17T10:34:46.436Z,99.90
2023-04-17T10:37:16.209Z,99.90
2023-04-17T10:39:57.657Z,99.90
2023-04-17T10:42:28.061Z,99.90
2023-04-17T10:45:01.848Z,99.90
2023-04-17T10:47:33.059Z,99.90
2023-04-17T10:50:03.982Z,99.90
2023-04-17T10:52:40.361Z,99.90
2023-04-17T10:55:13.679Z,99.90
2023-04-17T10:58:01.058Z,99.90
2023-04-17T11:00:33.075Z,99.90
2023-04-17T11:03:02.550Z,99.90
2023-04-17T11:05:31.440Z,99.90
2023-04-17T11:08:00.039Z,99.90
2023-04-17T11:10:29.693Z,99.90
2023-04-17T11:12:57.746Z,99.90
2023-04-17T11:15:29.841Z,99.90
2023-04-17T11:17:58.610Z,99.90
2023-04-17T11:20:30.177Z,99.90
2023-04-17T11:22:58.441Z,99.90
2023-04-17T11:25:30.240Z,99.90
2023-04-17T11:28:00.875Z,99.90
2023-04-17T11:30:30.871Z,99.90
2023-04-17T11:33:00.466Z,99.90
2023-04-17T11:35:33.458Z,99.90
2023-04-17T11:38:21.690Z,99.90
2023-04-17T11:40:52.151Z,99.90
2023-04-17T11:43:23.028Z,99.90
2023-04-17T11:45:52.941Z,99.90
2023-04-17T11:48:23.634Z,99.90
2023-04-17T11:50:56.132Z,99.90
2023-04-17T11:53:24.734Z,99.90
2023-04-17T11:56:14.528Z,99.90
2023-04-17T11:58:54.650Z,99.90
2023-04-17T12:01:25.442Z,99.90
2023-04-17T12:03:54.432Z,98.60
2023-04-17T12:06:25.485Z,99.40
2023-04-17T12:08:55.744Z,97.80
2023-04-17T12:11:32.818Z,97.50
2023-04-17T12:14:02.818Z,98.40
2023-04-17T12:16:31.566Z,99.80
2023-04-17T12:18:59.724Z,99.70
2023-04-17T12:21:27.738Z,99.90
2023-04-17T12:23:56.104Z,99.90
2023-04-17T12:26:25.540Z,99.90
2023-04-17T12:28:53.915Z,99.90
2023-04-17T12:31:23.261Z,99.90
2023-04-17T12:33:52.493Z,99.90
2023-04-17T12:36:20.654Z,99.90
2023-04-17T12:38:48.685Z,99.90
2023-04-17T12:41:16.712Z,99.90
2023-04-17T12:43:44.630Z,99.90
2023-04-17T12:46:12.642Z,99.90
2023-04-17T12:48:42.062Z,99.90
2023-04-17T12:51:10.229Z,99.90
2023-04-17T12:53:38.407Z,99.90
2023-04-17T12:56:07.222Z,99.90
2023-04-17T12:58:35.252Z,99.90
2023-04-17T13:01:03.282Z,99.90
2023-04-17T13:03:31.405Z,99.90
2023-04-17T13:06:01.004Z,99.90
2023-04-17T13:08:29.178Z,99.90
2023-04-17T13:10:57.377Z,99.90
2023-04-17T13:13:25.407Z,99.90
2023-04-17T13:15:53.428Z,99.90
2023-04-17T13:18:21.480Z,99.90
2023-04-17T13:20:49.585Z,99.90
2023-04-17T13:23:18.961Z,99.90
2023-04-17T13:25:46.967Z,99.90
2023-04-17T13:28:14.997Z,99.90
2023-04-17T13:30:43.107Z,99.90
2023-04-17T13:33:11.107Z,99.90
2023-04-17T13:35:39.100Z,99.90
2023-04-17T13:38:07.655Z,99.90
2023-04-17T13:40:38.628Z,99.90
2023-04-17T13:43:07.164Z,99.90
2023-04-17T13:45:36.078Z,99.90
2023-04-17T13:48:04.307Z,99.90
2023-04-17T13:50:32.279Z,99.90
2023-04-17T13:53:00.505Z,99.90
2023-04-17T13:55:28.482Z,99.90
2023-04-17T13:57:58.878Z,99.90
2023-04-17T14:00:27.158Z,99.90
2023-04-17T14:02:55.209Z,99.90
2023-04-17T14:05:23.546Z,99.90
2023-04-17T14:07:51.615Z,99.90
2023-04-17T14:10:19.734Z,99.90
2023-04-17T14:12:47.691Z,99.90
2023-04-17T14:17:47.959Z,99.90
2023-04-17T14:20:16.790Z,99.90
2023-04-17T14:22:44.610Z,99.90
2023-04-17T14:25:12.651Z,99.90
2023-04-17T14:27:40.677Z,99.90
2023-04-17T14:30:10.008Z,99.90
2023-04-17T14:32:38.604Z,99.90
2023-04-17T14:35:08.733Z,99.90
2023-04-17T14:37:36.900Z,99.90
2023-04-17T14:40:05.725Z,99.90
2023-04-17T14:42:40.758Z,99.90
2023-04-17T14:45:15.234Z,99.90
2023-04-17T14:47:43.999Z,99.90
2023-04-17T14:50:13.491Z,99.90
2023-04-17T14:52:41.493Z,99.90
2023-04-17T14:55:10.645Z,99.90
2023-04-17T14:57:38.640Z,99.90
2023-04-17T15:00:08.213Z,99.90
2023-04-17T15:02:38.968Z,99.90
2023-04-17T15:05:07.967Z,99.90
2023-04-17T15:07:37.236Z,99.90
2023-04-17T15:10:05.915Z,99.90
2023-04-17T15:12:33.822Z,99.90
2023-04-17T15:15:01.855Z,99.90
2023-04-17T15:17:29.748Z,99.90
2023-04-17T15:19:58.594Z,99.90
2023-04-17T15:22:27.000Z,99.90
2023-04-17T15:24:56.294Z,99.90
2023-04-17T15:27:24.325Z,99.90
2023-04-17T15:29:52.197Z,99.90
2023-04-17T15:32:20.379Z,99.90
2023-04-17T15:34:48.475Z,99.90
2023-04-17T15:37:16.496Z,99.90
2023-04-17T15:39:44.377Z,99.90
2023-04-17T15:42:13.626Z,99.90
2023-04-17T15:44:41.541Z,99.90
2023-04-17T15:47:10.067Z,99.90
2023-04-17T15:49:38.033Z,99.90
2023-04-17T15:52:06.834Z,99.90
2023-04-17T15:54:34.700Z,99.90
2023-04-17T15:57:02.584Z,99.90
2023-04-17T15:59:33.115Z,99.90
2023-04-17T16:02:01.231Z,99.90
2023-04-17T16:04:29.523Z,99.90
2023-04-17T16:06:57.677Z,99.90
2023-04-17T16:09:25.700Z,99.90
2023-04-17T16:11:53.937Z,99.90
2023-04-17T16:14:21.896Z,99.90
2023-04-17T16:16:51.220Z,99.90
2023-04-17T16:19:19.668Z,99.90
2023-04-17T16:21:47.530Z,99.90
2023-04-17T16:24:15.598Z,99.90
2023-04-17T16:26:44.025Z,99.90
2023-04-17T16:29:12.338Z,99.90
2023-04-17T16:31:41.226Z,99.90
2023-04-17T16:34:12.508Z,99.90
2023-04-17T16:36:45.360Z,99.90
2023-04-17T16:39:14.473Z,99.90
2023-04-17T16:41:42.810Z,99.90
2023-04-17T16:44:10.951Z,99.90
2023-04-17T16:47:03.004Z,99.90
2023-04-17T16:49:28.581Z,99.90
2023-04-17T16:51:56.702Z,99.90
2023-04-17T16:54:24.539Z,99.90
2023-04-17T16:56:53.192Z,99.90
2023-04-17T16:59:21.268Z,99.90
2023-04-17T17:01:49.787Z,99.90
2023-04-17T17:04:17.840Z,99.90
2023-04-17T17:06:47.203Z,99.90
2023-04-17T17:09:15.329Z,99.90
2023-04-17T17:11:43.367Z,99.90
2023-04-17T17:14:11.412Z,99.90
2023-04-17T17:16:40.899Z,99.90
2023-04-17T17:19:09.022Z,99.90
2023-04-17T17:21:37.102Z,99.90
2023-04-17T17:24:07.390Z,99.90
2023-04-17T17:26:36.980Z,99.90
2023-04-17T17:29:05.277Z,99.90
2023-04-17T17:31:34.750Z,99.90
2023-04-17T17:34:16.581Z,99.90
2023-04-17T17:36:51.086Z,99.90
2023-04-17T17:39:21.996Z,99.90
2023-04-17T17:41:50.354Z,99.90
2023-04-17T17:44:18.485Z,99.90
2023-04-17T17:46:46.440Z,99.90
2023-04-17T17:49:14.517Z,99.90
2023-04-17T17:51:44.490Z,99.90
2023-04-17T17:54:12.895Z,99.90
2023-04-17T17:56:42.517Z,99.90
2023-04-17T17:59:10.491Z,99.90
2023-04-17T18:01:38.568Z,99.90
2023-04-17T18:04:06.694Z,99.90
2023-04-17T18:06:35.138Z,99.90
2023-04-17T18:09:03.939Z,99.90
2023-04-17T18:11:31.929Z,99.90
2023-04-17T18:14:01.708Z,99.90
2023-04-17T18:16:31.547Z,99.90
2023-04-17T18:19:02.052Z,99.90
2023-04-17T18:21:30.085Z,99.90
2023-04-17T18:23:58.355Z,99.90
2023-04-17T18:26:26.314Z,99.90
2023-04-17T18:28:54.382Z,99.90
2023-04-17T18:31:25.241Z,99.90
2023-04-17T18:33:53.624Z,99.90
2023-04-17T18:36:21.623Z,99.90
2023-04-17T18:38:49.653Z,99.90
2023-04-17T18:41:17.742Z,99.90
2023-04-17T18:43:46.206Z,99.90
2023-04-17T18:46:14.196Z,99.90
2023-04-17T18:48:43.580Z,99.90
2023-04-17T18:51:12.549Z,99.90
2023-04-17T18:53:40.529Z,99.90
2023-04-17T18:56:10.791Z,99.90
2023-04-17T18:58:40.356Z,99.90
2023-04-17T19:01:10.406Z,99.90
2023-04-17T19:03:38.841Z,99.90
2023-04-17T19:06:08.257Z,99.90
2023-04-17T19:08:36.675Z,99.90
2023-04-17T19:11:04.865Z,99.90
2023-04-17T19:13:32.927Z,99.90
2023-04-17T19:16:00.984Z,99.90
2023-04-17T19:18:30.470Z,99.90
2023-04-17T19:20:58.471Z,99.90
2023-04-17T19:23:27.889Z,99.90
2023-04-17T19:25:56.531Z,99.90
2023-04-17T19:28:25.506Z,99.90
2023-04-17T19:30:54.080Z,99.90
2023-04-17T19:33:22.997Z,99.90
2023-04-17T19:35:52.416Z,99.90
2023-04-17T19:38:20.564Z,99.90
2023-04-17T19:41:11.959Z,99.90
2023-04-17T19:43:39.993Z,99.90
2023-04-17T19:46:08.855Z,99.90
2023-04-17T19:48:36.952Z,99.90
2023-04-17T19:51:06.369Z,99.90
2023-04-17T19:53:36.003Z,99.90
2023-04-17T19:56:08.280Z,99.90
2023-04-17T19:58:37.088Z,99.90
2023-04-17T20:01:05.692Z,99.90
2023-04-17T20:03:34.224Z,99.90
2023-04-17T20:06:03.557Z,99.90
2023-04-17T20:08:31.722Z,99.90
2023-04-17T20:10:59.716Z,99.90
2023-04-17T20:13:29.127Z,99.90
2023-04-17T20:15:57.636Z,99.90
2023-04-17T20:18:27.787Z,99.90
2023-04-17T20:20:55.837Z,99.90
2023-04-17T20:23:24.013Z,99.90
2023-04-17T20:25:51.971Z,99.90
2023-04-17T20:28:20.189Z,99.90
2023-04-17T20:30:50.950Z,99.90
2023-04-17T20:33:19.049Z,99.90
2023-04-17T20:35:47.206Z,99.90
2023-04-17T20:38:15.359Z,99.90
2023-04-17T20:40:43.870Z,99.90
2023-04-17T20:43:13.048Z,99.90
2023-04-17T20:45:41.182Z,99.90
2023-04-17T20:48:10.496Z,99.90
2023-04-17T20:50:38.528Z,99.90
2023-04-17T20:53:06.687Z,99.90
2023-04-17T20:55:34.756Z,99.90
2023-04-17T20:58:02.949Z,99.90
2023-04-17T21:00:30.855Z,99.90
2023-04-17T21:02:58.881Z,99.90
2023-04-17T21:05:28.429Z,99.90
2023-04-17T21:07:57.833Z,99.90
2023-04-17T21:10:25.959Z,99.90
2023-04-17T21:12:53.933Z,99.90
2023-04-17T21:15:22.168Z,99.90
2023-04-17T21:17:50.208Z,99.90
2023-04-17T21:20:18.375Z,99.90
2023-04-17T21:22:47.742Z,99.90
2023-04-17T21:25:15.758Z,99.90
2023-04-17T21:27:43.963Z,99.90
2023-04-17T21:30:12.428Z,99.90
2023-04-17T21:32:42.288Z,99.90
2023-04-17T21:35:11.369Z,99.90
2023-04-17T21:37:39.399Z,99.90
2023-04-17T21:40:10.119Z,99.90
2023-04-17T21:42:38.117Z,99.90
2023-04-17T21:45:07.127Z,99.90
2023-04-17T21:47:35.632Z,99.90
2023-04-17T21:50:03.677Z,99.90
2023-04-17T21:52:32.006Z,99.90
2023-04-17T21:55:05.103Z,99.90
2023-04-17T21:57:35.135Z,99.90
2023-04-17T22:00:04.408Z,99.90
2023-04-17T22:02:32.597Z,99.90
2023-04-17T22:05:00.666Z,99.90
2023-04-17T22:07:28.799Z,99.90
2023-04-17T22:09:59.010Z,99.90
2023-04-17T22:12:27.023Z,99.90
2023-04-17T22:14:56.359Z,99.90
2023-04-17T22:17:24.402Z,99.90
2023-04-17T22:19:52.525Z,99.90
2023-04-17T22:22:20.602Z,99.90
2023-04-17T22:24:48.721Z,99.90
2023-04-17T22:27:16.739Z,99.90
2023-04-17T22:29:44.760Z,99.90
2023-04-17T22:32:14.168Z,99.90
2023-04-17T22:34:42.643Z,99.90
2023-04-17T22:37:10.605Z,99.90
2023-04-17T22:39:38.676Z,99.90
2023-04-17T22:42:06.690Z,99.90
2023-04-17T22:44:34.786Z,99.90
2023-04-17T22:47:02.874Z,99.90
2023-04-17T22:49:32.541Z,99.90
2023-04-17T22:52:01.038Z,99.90
2023-04-17T22:54:28.988Z,99.90
2023-04-17T22:56:56.905Z,99.90
2023-04-17T22:59:25.004Z,99.90
2023-04-17T23:01:53.480Z,99.90
2023-04-17T23:04:23.592Z,99.90
2023-04-17T23:06:53.032Z,99.90
2023-04-17T23:09:21.055Z,99.90
2023-04-17T23:11:48.962Z,99.90
2023-04-17T23:14:17.422Z,99.90
2023-04-17T23:16:45.562Z,99.90
2023-04-17T23:19:13.704Z,99.90
2023-04-17T23:21:41.733Z,99.90
2023-04-17T23:24:11.769Z,99.90
2023-04-17T23:26:39.902Z,99.90
2023-04-17T23:29:08.551Z,99.90
2023-04-17T23:31:38.122Z,99.90
2023-04-17T23:34:06.225Z,99.90
2023-04-17T23:36:34.296Z,99.90
2023-04-17T23:39:02.277Z,99.90
2023-04-17T23:41:34.159Z,99.90
2023-04-17T23:44:02.346Z,99.90
2023-04-17T23:46:30.917Z,99.90
2023-04-17T23:48:59.004Z,99.90
2023-04-17T23:51:27.587Z,99.90
2023-04-17T23:53:56.108Z,99.90
2023-04-17T23:56:24.186Z,99.90
2023-04-17T23:58:53.671Z,99.90
